Time;durP1;ratioP1;P1;durP2;ratioP2;P2;SDS_P1;SDS_P2;PMS_P1;PMS_P2;Temp;Humidity;BMP_temperature;BMP_pressure;BME280_temperature;BME280_humidity;BME280_pressure;Samples;Min_cycle;Max_cycle;Signal;HPM_P1;HPM_P2
2023/11/07 00:01:14;;;;;;;;;;;9.00;99.90;;;;;;5064023;28;19975;-78
2023/11/07 00:03:40;;;;;;;;;;;9.10;99.90;;;;;;5045833;28;19921;-77
2023/11/07 00:06:06;;;;;;;;;;;9.00;99.90;;;;;;5064520;28;20365;-79
2023/11/07 00:08:31;;;;;;;;;;;9.00;99.90;;;;;;5045820;28;19927;-79
2023/11/07 00:10:57;;;;;;;;;;;9.10;99.90;;;;;;5062918;28;19912;-78
2023/11/07 00:13:22;;;;;;;;;;;9.10;99.90;;;;;;5062191;28;19909;-79
2023/11/07 00:15:48;;;;;;;;;;;9.00;99.90;;;;;;5063255;28;19905;-78
2023/11/07 00:18:15;;;;;;;;;;;9.10;99.90;;;;;;5063652;28;19976;-77
2023/11/07 00:20:41;;;;;;;;;;;9.10;99.90;;;;;;5062226;28;19913;-79
2023/11/07 00:23:07;;;;;;;;;;;8.90;99.90;;;;;;5063787;28;19972;-79
2023/11/07 00:25:33;;;;;;;;;;;8.90;99.90;;;;;;5045850;28;19947;-78
2023/11/07 00:28:03;;;;;;;;;;;8.90;99.90;;;;;;5045187;28;19913;-79
2023/11/07 00:30:28;;;;;;;;;;;8.90;99.90;;;;;;5063951;28;19996;-79
2023/11/07 00:32:54;;;;;;;;;;;8.70;99.90;;;;;;5064090;28;19909;-78
2023/11/07 00:35:20;;;;;;;;;;;8.90;99.90;;;;;;5063158;28;19943;-79
2023/11/07 00:37:46;;;;;;;;;;;8.90;99.90;;;;;;5063303;28;19912;-79
2023/11/07 00:40:12;;;;;;;;;;;8.90;99.90;;;;;;5046070;28;19905;-78
2023/11/07 00:42:38;;;;;;;;;;;8.80;99.90;;;;;;5045125;28;19967;-78
2023/11/07 00:45:08;;;;;;;;;;;8.70;99.90;;;;;;5064056;28;19904;-77
2023/11/07 00:47:35;;;;;;;;;;;8.60;99.90;;;;;;5062339;28;19916;-78
2023/11/07 00:50:00;;;;;;;;;;;8.60;99.90;;;;;;5063501;28;19909;-78
2023/11/07 00:52:28;;;;;;;;;;;8.60;99.90;;;;;;5062329;28;19912;-78
2023/11/07 00:54:53;;;;;;;;;;;8.60;99.90;;;;;;5045000;28;19909;-78
2023/11/07 00:57:19;;;;;;;;;;;8.70;99.90;;;;;;5028864;28;20023;-79
2023/11/07 00:59:47;;;;;;;;;;;8.60;99.90;;;;;;5063479;28;19905;-78
2023/11/07 01:02:13;;;;;;;;;;;8.70;99.90;;;;;;5063938;28;19967;-77
2023/11/07 01:04:38;;;;;;;;;;;8.70;99.90;;;;;;5046068;28;20392;-78
2023/11/07 01:07:07;;;;;;;;;;;8.80;99.90;;;;;;5064145;28;19912;-79
2023/11/07 01:09:33;;;;;;;;;;;8.90;99.90;;;;;;5062244;28;19989;-79
2023/11/07 01:11:58;;;;;;;;;;;8.90;99.90;;;;;;5060981;28;19929;-78
2023/11/07 01:14:25;;;;;;;;;;;8.80;99.90;;;;;;5062143;28;19908;-79
2023/11/07 01:16:51;;;;;;;;;;;8.80;99.90;;;;;;5063915;28;19912;-79
2023/11/07 01:19:17;;;;;;;;;;;8.20;99.90;;;;;;5028945;28;19931;-79
2023/11/07 01:21:42;;;;;;;;;;;8.70;99.90;;;;;;5044781;28;19904;-78
2023/11/07 01:24:09;;;;;;;;;;;8.60;99.90;;;;;;5062094;28;19980;-79
2023/11/07 01:26:36;;;;;;;;;;;8.70;99.90;;;;;;5061481;28;19912;-79
2023/11/07 01:29:01;;;;;;;;;;;8.80;99.90;;;;;;5061928;28;19930;-79
2023/11/07 01:31:27;;;;;;;;;;;8.70;99.90;;;;;;5062429;28;20520;-78
2023/11/07 01:33:53;;;;;;;;;;;8.70;99.90;;;;;;5044681;28;19905;-78
2023/11/07 01:36:18;;;;;;;;;;;8.80;99.90;;;;;;5044596;28;19905;-78
2023/11/07 01:38:44;;;;;;;;;;;8.90;99.90;;;;;;5062824;28;19905;-78
2023/11/07 01:41:10;;;;;;;;;;;8.90;99.90;;;;;;5061007;28;19912;-78
2023/11/07 01:43:35;;;;;;;;;;;9.00;99.90;;;;;;5060262;28;19917;-79
2023/11/07 01:46:02;;;;;;;;;;;9.00;99.90;;;;;;5063479;28;20312;-79
2023/11/07 01:48:28;;;;;;;;;;;9.10;99.90;;;;;;5062729;28;20382;-78
2023/11/07 01:50:54;;;;;;;;;;;9.00;99.90;;;;;;5043644;28;19950;-78
2023/11/07 01:53:20;;;;;;;;;;;8.80;99.90;;;;;;5059933;28;19908;-79
2023/11/07 01:55:46;;;;;;;;;;;9.10;99.90;;;;;;5060824;28;20360;-78
2023/11/07 01:58:14;;;;;;;;;;;9.10;99.90;;;;;;5061607;28;20392;-78
2023/11/07 02:00:41;;;;;;;;;;;9.00;99.90;;;;;;5061276;28;19992;-78
2023/11/07 02:03:07;;;;;;;;;;;8.90;99.90;;;;;;5060455;28;19979;-77
2023/11/07 02:05:33;;;;;;;;;;;8.80;99.90;;;;;;5063298;28;19905;-78
2023/11/07 02:07:58;;;;;;;;;;;8.80;99.90;;;;;;5043583;28;19915;-79
2023/11/07 02:10:30;;;;;;;;;;;8.70;99.90;;;;;;5059576;28;19909;-79
2023/11/07 02:12:56;;;;;;;;;;;8.60;99.90;;;;;;5062143;28;19996;-78
2023/11/07 02:15:23;;;;;;;;;;;8.60;99.90;;;;;;5043166;28;19970;-78
2023/11/07 02:17:48;;;;;;;;;;;8.60;99.90;;;;;;5044118;28;19911;-78
2023/11/07 02:20:17;;;;;;;;;;;8.60;99.90;;;;;;5042769;28;20007;-79
2023/11/07 02:22:48;;;;;;;;;;;7.70;99.90;;;;;;5042557;28;19964;-79
2023/11/07 02:25:15;;;;;;;;;;;8.50;99.90;;;;;;5060755;28;19921;-78
2023/11/07 02:27:41;;;;;;;;;;;8.50;99.90;;;;;;5059923;28;19908;-78
2023/11/07 02:30:12;;;;;;;;;;;8.40;99.90;;;;;;5043530;28;19904;-77
2023/11/07 02:32:42;;;;;;;;;;;8.40;99.90;;;;;;5059304;28;20011;-78
2023/11/07 02:35:08;;;;;;;;;;;8.30;99.90;;;;;;5043636;28;19909;-79
2023/11/07 02:37:34;;;;;;;;;;;8.40;99.90;;;;;;5061852;28;19912;-79
2023/11/07 02:40:00;;;;;;;;;;;8.30;99.90;;;;;;5061432;28;19904;-78
2023/11/07 02:42:29;;;;;;;;;;;8.10;99.90;;;;;;5060572;28;20408;-78
2023/11/07 02:44:56;;;;;;;;;;;8.30;99.90;;;;;;5061049;28;20043;-79
2023/11/07 02:47:22;;;;;;;;;;;8.20;99.90;;;;;;5043071;28;19908;-78
2023/11/07 02:49:47;;;;;;;;;;;8.10;99.90;;;;;;5061879;28;19935;-79
2023/11/07 02:52:13;;;;;;;;;;;8.00;99.90;;;;;;5060808;28;19909;-78
2023/11/07 02:54:39;;;;;;;;;;;8.00;99.90;;;;;;5060137;28;19947;-79
2023/11/07 02:57:04;;;;;;;;;;;8.00;99.90;;;;;;5061532;28;19932;-79
2023/11/07 02:59:31;;;;;;;;;;;7.90;99.90;;;;;;5060445;28;19905;-78
2023/11/07 03:01:57;;;;;;;;;;;7.90;99.90;;;;;;5061047;28;19934;-78
2023/11/07 03:04:22;;;;;;;;;;;7.90;99.90;;;;;;5043183;28;20411;-78
2023/11/07 03:06:48;;;;;;;;;;;7.60;99.90;;;;;;5027770;28;19920;-78
2023/11/07 03:09:15;;;;;;;;;;;7.80;99.90;;;;;;5060235;28;19915;-78
2023/11/07 03:12:01;;;;;;;;;;;7.70;99.90;;;;;;5059474;28;19958;-78
2023/11/07 03:14:32;;;;;;;;;;;7.70;99.90;;;;;;5060723;28;19904;-78
2023/11/07 03:16:57;;;;;;;;;;;7.70;99.90;;;;;;5060192;28;19913;-79
2023/11/07 03:19:24;;;;;;;;;;;7.50;99.90;;;;;;5061488;28;19963;-79
2023/11/07 03:21:50;;;;;;;;;;;7.70;99.90;;;;;;5062544;28;19916;-79
2023/11/07 03:24:17;;;;;;;;;;;7.70;99.90;;;;;;5061336;28;19917;-78
2023/11/07 03:26:44;;;;;;;;;;;8.30;99.90;;;;;;5062372;28;19928;-78
2023/11/07 03:29:12;;;;;;;;;;;7.70;99.90;;;;;;5062283;28;19967;-78
2023/11/07 03:31:39;;;;;;;;;;;7.70;99.90;;;;;;5061867;28;20032;-78
2023/11/07 03:34:05;;;;;;;;;;;7.70;99.90;;;;;;5060936;28;19905;-78
2023/11/07 03:36:34;;;;;;;;;;;7.60;99.90;;;;;;5062324;28;20010;-78
2023/11/07 03:39:00;;;;;;;;;;;7.60;99.90;;;;;;5043911;28;19992;-78
2023/11/07 03:41:25;;;;;;;;;;;7.60;99.90;;;;;;5060635;28;19912;-78
2023/11/07 03:43:51;;;;;;;;;;;7.60;99.90;;;;;;5043977;28;19927;-79
2023/11/07 03:46:20;;;;;;;;;;;7.50;99.90;;;;;;5044397;28;19908;-77
2023/11/07 03:48:46;;;;;;;;;;;7.40;99.90;;;;;;5062786;28;19905;-79
2023/11/07 03:51:13;;;;;;;;;;;7.40;99.90;;;;;;5061591;28;19940;-78
2023/11/07 03:53:39;;;;;;;;;;;7.40;99.90;;;;;;5063892;28;19975;-79
2023/11/07 03:56:08;;;;;;;;;;;7.40;99.90;;;;;;5062982;28;19905;-79
2023/11/07 03:58:35;;;;;;;;;;;7.30;99.90;;;;;;5061830;28;19916;-79
2023/11/07 04:01:01;;;;;;;;;;;7.30;99.90;;;;;;5043497;28;19994;-78
2023/11/07 04:03:28;;;;;;;;;;;7.30;99.90;;;;;;5043057;28;19912;-79
2023/11/07 04:05:54;;;;;;;;;;;6.90;99.90;;;;;;5060847;28;19904;-78
2023/11/07 04:08:20;;;;;;;;;;;7.30;99.90;;;;;;5061193;28;20007;-78
2023/11/07 04:10:46;;;;;;;;;;;7.30;99.90;;;;;;5059673;28;19905;-78
2023/11/07 04:13:13;;;;;;;;;;;6.80;99.90;;;;;;5060724;28;19908;-78
2023/11/07 04:15:38;;;;;;;;;;;7.20;99.90;;;;;;5026662;28;19962;-79
2023/11/07 04:18:04;;;;;;;;;;;7.20;99.90;;;;;;5059935;28;19944;-78
2023/11/07 04:20:32;;;;;;;;;;;7.20;99.90;;;;;;5059084;28;19904;-78
2023/11/07 04:23:02;;;;;;;;;;;7.10;99.90;;;;;;5044008;28;19908;-78
2023/11/07 04:25:30;;;;;;;;;;;7.10;99.90;;;;;;5058731;28;19915;-78
2023/11/07 04:27:56;;;;;;;;;;;7.20;99.90;;;;;;5042008;28;19909;-78
2023/11/07 04:30:22;;;;;;;;;;;7.20;99.90;;;;;;5059921;28;19908;-78
2023/11/07 04:32:48;;;;;;;;;;;7.20;99.90;;;;;;5063467;28;20003;-78
2023/11/07 04:35:15;;;;;;;;;;;7.00;99.90;;;;;;5063778;28;20453;-78
2023/11/07 04:37:42;;;;;;;;;;;7.10;99.90;;;;;;5063939;28;19931;-79
2023/11/07 04:40:08;;;;;;;;;;;7.00;99.90;;;;;;5046951;28;19999;-78
2023/11/07 04:42:34;;;;;;;;;;;7.00;99.90;;;;;;5062573;28;19921;-78
2023/11/07 04:45:06;;;;;;;;;;;6.90;99.90;;;;;;5064953;28;19947;-78
2023/11/07 04:47:49;;;;;;;;;;;7.00;99.90;;;;;;5063982;28;19909;-78
2023/11/07 04:50:16;;;;;;;;;;;7.00;99.90;;;;;;5063474;28;19912;-79
2023/11/07 04:52:53;;;;;;;;;;;6.90;99.90;;;;;;5064093;28;19912;-79
2023/11/07 04:55:18;;;;;;;;;;;6.90;99.90;;;;;;5063613;28;19904;-79
2023/11/07 04:57:45;;;;;;;;;;;6.80;99.90;;;;;;5063254;28;19912;-78
2023/11/07 05:00:12;;;;;;;;;;;7.00;99.90;;;;;;5063939;28;19980;-78
2023/11/07 05:02:39;;;;;;;;;;;6.60;99.90;;;;;;5063395;28;19944;-78
2023/11/07 05:05:05;;;;;;;;;;;7.00;99.90;;;;;;5061597;28;19916;-78
2023/11/07 05:07:31;;;;;;;;;;;7.00;99.90;;;;;;5045574;28;20277;-79
2023/11/07 05:09:58;;;;;;;;;;;6.90;99.90;;;;;;5063137;28;19909;-78
2023/11/07 05:12:27;;;;;;;;;;;7.00;99.90;;;;;;5061441;28;19909;-76
2023/11/07 05:14:53;;;;;;;;;;;6.80;99.90;;;;;;5045053;28;20281;-79
2023/11/07 05:17:20;;;;;;;;;;;6.90;99.90;;;;;;5044397;28;19911;-79
2023/11/07 05:19:46;;;;;;;;;;;7.50;99.90;;;;;;5062948;28;19912;-78
2023/11/07 05:22:12;;;;;;;;;;;6.70;99.90;;;;;;5044359;28;20013;-78
2023/11/07 05:24:37;;;;;;;;;;;6.90;99.90;;;;;;5045674;28;19913;-78
2023/11/07 05:27:06;;;;;;;;;;;6.80;99.90;;;;;;5045592;28;19916;-78
2023/11/07 05:29:34;;;;;;;;;;;6.80;99.90;;;;;;5061518;28;19913;-78
2023/11/07 05:32:00;;;;;;;;;;;7.00;99.90;;;;;;5060976;28;20405;-79
2023/11/07 05:34:25;;;;;;;;;;;6.90;99.90;;;;;;5062494;28;19940;-78
2023/11/07 05:36:51;;;;;;;;;;;6.90;99.90;;;;;;5062133;28;19932;-79
2023/11/07 05:39:17;;;;;;;;;;;6.90;99.90;;;;;;5062490;28;19908;-77
2023/11/07 05:41:44;;;;;;;;;;;6.90;99.90;;;;;;5060288;28;19928;-77
2023/11/07 05:44:09;;;;;;;;;;;7.00;99.90;;;;;;5044013;28;19952;-78
2023/11/07 05:46:36;;;;;;;;;;;7.10;99.90;;;;;;5060605;28;19909;-79
2023/11/07 05:49:01;;;;;;;;;;;6.90;99.90;;;;;;5062379;28;19923;-78
2023/11/07 05:51:27;;;;;;;;;;;6.90;99.90;;;;;;5062188;28;19904;-78
2023/11/07 05:53:53;;;;;;;;;;;6.90;99.90;;;;;;5061103;28;19904;-78
2023/11/07 05:56:21;;;;;;;;;;;6.90;99.90;;;;;;5062549;28;20428;-78
2023/11/07 05:58:47;;;;;;;;;;;6.90;99.90;;;;;;5063313;28;19939;-78
2023/11/07 06:01:13;;;;;;;;;;;6.90;99.90;;;;;;5046634;28;19908;-79
2023/11/07 06:03:39;;;;;;;;;;;6.90;99.90;;;;;;5048060;28;19912;-78
2023/11/07 06:06:09;;;;;;;;;;;6.90;99.90;;;;;;5062757;28;20468;-78
2023/11/07 06:08:36;;;;;;;;;;;6.90;99.90;;;;;;5060392;28;19920;-77
2023/11/07 06:11:02;;;;;;;;;;;7.00;99.90;;;;;;5057151;28;19905;-78
2023/11/07 06:13:29;;;;;;;;;;;7.90;99.90;;;;;;5059149;28;19909;-79
2023/11/07 06:15:56;;;;;;;;;;;6.70;99.90;;;;;;5059339;28;19915;-79
2023/11/07 06:18:24;;;;;;;;;;;7.20;99.90;;;;;;5062246;28;19984;-78
2023/11/07 06:20:50;;;;;;;;;;;7.20;99.90;;;;;;5059220;28;19916;-79
2023/11/07 06:23:16;;;;;;;;;;;7.40;99.90;;;;;;5062049;28;20011;-78
2023/11/07 06:25:47;;;;;;;;;;;7.50;99.90;;;;;;5062243;28;19948;-78
2023/11/07 06:28:12;;;;;;;;;;;7.70;99.90;;;;;;5061806;28;19909;-78
2023/11/07 06:30:38;;;;;;;;;;;7.80;99.90;;;;;;5059639;28;19905;-78
2023/11/07 06:33:04;;;;;;;;;;;8.10;99.90;;;;;;5060984;28;19905;-79
2023/11/07 06:35:30;;;;;;;;;;;8.20;99.90;;;;;;5059588;28;19911;-79
2023/11/07 06:37:57;;;;;;;;;;;8.10;99.90;;;;;;5059444;28;19905;-78
2023/11/07 06:40:23;;;;;;;;;;;8.50;99.90;;;;;;5042818;28;20054;-79
2023/11/07 06:42:49;;;;;;;;;;;8.70;99.90;;;;;;5042365;28;19916;-79
2023/11/07 06:45:15;;;;;;;;;;;8.90;99.90;;;;;;5060682;28;20004;-78
2023/11/07 06:47:43;;;;;;;;;;;9.00;99.90;;;;;;5058875;28;19909;-77
2023/11/07 06:50:10;;;;;;;;;;;9.20;99.90;;;;;;5042705;28;19904;-77
2023/11/07 06:52:40;;;;;;;;;;;9.40;99.90;;;;;;5026139;28;20293;-78
2023/11/07 06:55:07;;;;;;;;;;;9.70;99.90;;;;;;5042105;28;19909;-79
2023/11/07 06:57:33;;;;;;;;;;;9.80;99.90;;;;;;5058680;28;19939;-78
2023/11/07 06:59:59;;;;;;;;;;;10.10;99.90;;;;;;5061217;28;19905;-78
2023/11/07 07:02:25;;;;;;;;;;;10.10;99.90;;;;;;5061396;28;19916;-79
2023/11/07 07:04:53;;;;;;;;;;;10.30;99.90;;;;;;5060022;28;19940;-79
2023/11/07 07:07:20;;;;;;;;;;;10.30;99.90;;;;;;5061590;28;19907;-78
2023/11/07 07:09:45;;;;;;;;;;;10.40;99.90;;;;;;5059051;28;19908;-78
2023/11/07 07:12:12;;;;;;;;;;;10.50;99.90;;;;;;5061882;28;19936;-79
2023/11/07 07:14:39;;;;;;;;;;;10.70;99.90;;;;;;5058940;28;19909;-78
2023/11/07 07:17:07;;;;;;;;;;;10.90;99.90;;;;;;5059494;28;20436;-78
2023/11/07 07:19:37;;;;;;;;;;;11.20;99.90;;;;;;5042955;28;19987;-79
2023/11/07 07:22:05;;;;;;;;;;;11.50;99.90;;;;;;5061632;28;19928;-78
2023/11/07 07:24:32;;;;;;;;;;;11.70;99.90;;;;;;5060495;28;19979;-77
2023/11/07 07:26:58;;;;;;;;;;;11.70;99.90;;;;;;5042709;28;19904;-78
2023/11/07 07:29:23;;;;;;;;;;;11.70;99.90;;;;;;5060956;28;20361;-79
2023/11/07 07:31:52;;;;;;;;;;;11.60;99.90;;;;;;5061714;28;19944;-78
2023/11/07 07:34:18;;;;;;;;;;;11.70;99.90;;;;;;5057661;28;19988;-78
2023/11/07 07:36:44;;;;;;;;;;;12.00;99.90;;;;;;5053852;28;19944;-77
2023/11/07 07:39:29;;;;;;;;;;;12.50;99.90;;;;;;5053829;28;19904;-77
2023/11/07 07:41:58;;;;;;;;;;;13.00;99.90;;;;;;5057760;28;19908;-77
2023/11/07 07:44:27;;;;;;;;;;;13.60;99.90;;;;;;5057709;28;19920;-78
2023/11/07 07:46:54;;;;;;;;;;;13.80;99.90;;;;;;5058923;28;19978;-78
2023/11/07 07:49:23;;;;;;;;;;;14.30;99.90;;;;;;5039908;28;19915;-78
2023/11/07 07:51:52;;;;;;;;;;;14.40;99.90;;;;;;5055784;28;20436;-77
2023/11/07 07:54:22;;;;;;;;;;;14.40;99.90;;;;;;5041079;28;19909;-78
2023/11/07 07:56:56;;;;;;;;;;;14.40;99.90;;;;;;5058262;28;19944;-78
2023/11/07 07:59:23;;;;;;;;;;;14.30;99.90;;;;;;5058358;28;19909;-78
2023/11/07 08:01:52;;;;;;;;;;;14.20;99.90;;;;;;5055552;28;19958;-77
2023/11/07 08:04:25;;;;;;;;;;;14.00;99.90;;;;;;5057740;28;19912;-78
2023/11/07 08:06:51;;;;;;;;;;;13.80;99.90;;;;;;5061251;28;19909;-78
2023/11/07 08:09:19;;;;;;;;;;;13.80;99.90;;;;;;5066794;28;19905;-78
2023/11/07 08:11:47;;;;;;;;;;;14.00;99.90;;;;;;5064987;28;19980;-78
2023/11/07 08:14:16;;;;;;;;;;;14.20;99.90;;;;;;5060779;28;19975;-78
2023/11/07 08:16:43;;;;;;;;;;;14.50;99.90;;;;;;5062417;28;19911;-78
2023/11/07 08:19:09;;;;;;;;;;;14.50;99.90;;;;;;5065588;28;19951;-78
2023/11/07 08:21:36;;;;;;;;;;;14.50;99.90;;;;;;5044412;28;20373;-77
2023/11/07 08:24:03;;;;;;;;;;;14.70;99.90;;;;;;5060548;28;20039;-78
2023/11/07 08:26:28;;;;;;;;;;;14.70;99.90;;;;;;5061333;28;19992;-77
2023/11/07 08:28:55;;;;;;;;;;;14.70;99.90;;;;;;5061749;28;20011;-78
2023/11/07 08:31:22;;;;;;;;;;;14.60;99.90;;;;;;5060933;28;19951;-78
2023/11/07 08:33:50;;;;;;;;;;;14.60;99.90;;;;;;5061574;28;19944;-78
2023/11/07 08:36:17;;;;;;;;;;;14.70;99.90;;;;;;5061492;28;19931;-77
2023/11/07 08:38:43;;;;;;;;;;;14.90;99.90;;;;;;5060248;28;19963;-78
2023/11/07 08:41:11;;;;;;;;;;;14.70;99.90;;;;;;5061452;28;19971;-78
2023/11/07 08:43:39;;;;;;;;;;;14.50;99.90;;;;;;5061263;28;19928;-78
2023/11/07 08:46:05;;;;;;;;;;;14.40;99.90;;;;;;5043166;28;19908;-77
2023/11/07 08:48:31;;;;;;;;;;;14.30;99.90;;;;;;5060667;28;19970;-79
2023/11/07 08:50:56;;;;;;;;;;;14.10;99.90;;;;;;5061204;28;20297;-78
2023/11/07 08:53:23;;;;;;;;;;;14.00;99.90;;;;;;5060631;28;19912;-77
2023/11/07 08:55:51;;;;;;;;;;;14.00;99.90;;;;;;5061609;28;19912;-78
2023/11/07 08:58:18;;;;;;;;;;;14.00;99.90;;;;;;5068951;28;19992;-79
2023/11/07 09:00:44;;;;;;;;;;;14.00;99.90;;;;;;5063096;28;19940;-79
2023/11/07 09:03:10;;;;;;;;;;;14.00;99.90;;;;;;5062322;28;19927;-78
2023/11/07 09:05:38;;;;;;;;;;;13.80;99.90;;;;;;5063114;28;20008;-79
2023/11/07 09:08:04;;;;;;;;;;;13.70;99.90;;;;;;5061492;28;19999;-78
2023/11/07 09:10:31;;;;;;;;;;;13.90;99.90;;;;;;5063288;28;19909;-79
2023/11/07 09:12:57;;;;;;;;;;;13.90;99.90;;;;;;5045517;28;19948;-78
2023/11/07 09:15:25;;;;;;;;;;;13.90;99.90;;;;;;5046554;28;19912;-79
2023/11/07 09:17:51;;;;;;;;;;;13.90;99.90;;;;;;5045873;28;19904;-78
2023/11/07 09:20:18;;;;;;;;;;;13.90;99.90;;;;;;5062919;28;19911;-78
2023/11/07 09:22:44;;;;;;;;;;;13.80;99.90;;;;;;5063283;28;19909;-78
2023/11/07 09:25:11;;;;;;;;;;;13.80;99.90;;;;;;5064639;28;19935;-78
2023/11/07 09:27:37;;;;;;;;;;;13.90;99.90;;;;;;5046309;28;19905;-79
2023/11/07 09:30:08;;;;;;;;;;;13.70;99.90;;;;;;5062982;28;19911;-78
2023/11/07 09:32:43;;;;;;;;;;;13.70;99.90;;;;;;5069651;28;19905;-80
2023/11/07 09:35:09;;;;;;;;;;;13.70;99.90;;;;;;5064089;28;19908;-78
2023/11/07 09:37:41;;;;;;;;;;;13.70;99.90;;;;;;5063706;28;19917;-78
2023/11/07 09:40:10;;;;;;;;;;;13.60;99.90;;;;;;5057292;28;19912;-78
2023/11/07 09:42:37;;;;;;;;;;;13.60;99.90;;;;;;5083590;28;19920;-79
2023/11/07 09:45:09;;;;;;;;;;;13.70;99.90;;;;;;5065528;28;19930;-79
2023/11/07 09:47:35;;;;;;;;;;;13.70;99.90;;;;;;5076180;28;19954;-79
2023/11/07 09:50:04;;;;;;;;;;;13.70;99.90;;;;;;5065501;28;19913;-79
2023/11/07 09:52:30;;;;;;;;;;;13.80;99.90;;;;;;5072631;28;19909;-78
2023/11/07 09:54:57;;;;;;;;;;;13.80;99.90;;;;;;5079433;28;19951;-78
2023/11/07 09:57:24;;;;;;;;;;;13.70;99.90;;;;;;5065857;28;19939;-79
2023/11/07 09:59:54;;;;;;;;;;;13.80;99.90;;;;;;5058996;28;19905;-79
2023/11/07 10:02:21;;;;;;;;;;;13.70;99.90;;;;;;5060946;28;19963;-79
2023/11/07 10:04:52;;;;;;;;;;;13.70;99.90;;;;;;5083143;28;19913;-79
2023/11/07 10:07:19;;;;;;;;;;;13.70;99.90;;;;;;5064634;28;20355;-79
2023/11/07 10:09:46;;;;;;;;;;;13.60;99.90;;;;;;5065279;28;19916;-78
2023/11/07 10:12:18;;;;;;;;;;;13.60;99.90;;;;;;5065082;28;20377;-79
2023/11/07 10:14:47;;;;;;;;;;;13.60;99.90;;;;;;5065014;28;19908;-78
2023/11/07 10:17:20;;;;;;;;;;;13.50;99.90;;;;;;5066511;28;19958;-78
2023/11/07 10:20:02;;;;;;;;;;;13.50;99.90;;;;;;5075090;28;19927;-78
2023/11/07 10:22:28;;;;;;;;;;;13.60;99.90;;;;;;5064055;28;19927;-79
2023/11/07 10:24:56;;;;;;;;;;;13.60;99.90;;;;;;5059944;28;20397;-79
2023/11/07 10:27:28;;;;;;;;;;;13.60;99.90;;;;;;5061143;28;20427;-79
2023/11/07 10:29:55;;;;;;;;;;;13.60;99.90;;;;;;5081691;28;19954;-79
2023/11/07 10:32:22;;;;;;;;;;;13.60;99.90;;;;;;5061010;28;19916;-79
2023/11/07 10:35:01;;;;;;;;;;;13.60;99.90;;;;;;5081600;28;19911;-79
2023/11/07 10:37:36;;;;;;;;;;;13.60;99.90;;;;;;5080940;28;19908;-78
2023/11/07 10:40:05;;;;;;;;;;;13.60;99.90;;;;;;5063978;28;19908;-79
2023/11/07 10:42:34;;;;;;;;;;;13.60;99.90;;;;;;5063529;28;19927;-79
2023/11/07 10:45:03;;;;;;;;;;;13.70;99.90;;;;;;5064077;28;19962;-79
2023/11/07 10:47:35;;;;;;;;;;;13.70;99.90;;;;;;5063684;28;19911;-79
2023/11/07 10:50:05;;;;;;;;;;;13.70;99.90;;;;;;5063763;28;19975;-78
2023/11/07 10:52:30;;;;;;;;;;;13.70;99.90;;;;;;5063554;28;19908;-79
2023/11/07 10:54:56;;;;;;;;;;;13.80;99.90;;;;;;5067584;28;19911;-79
2023/11/07 10:57:25;;;;;;;;;;;13.90;99.90;;;;;;5053947;28;19916;-78
2023/11/07 10:59:56;;;;;;;;;;;13.70;99.90;;;;;;5064335;28;20333;-78
2023/11/07 11:02:24;;;;;;;;;;;13.70;99.90;;;;;;5082119;28;19939;-78
2023/11/07 11:04:50;;;;;;;;;;;13.60;99.90;;;;;;5059055;28;19912;-78
2023/11/07 11:07:17;;;;;;;;;;;13.70;99.90;;;;;;5082445;28;19908;-79
2023/11/07 11:09:43;;;;;;;;;;;13.70;99.90;;;;;;5066723;28;20318;-79
2023/11/07 11:12:09;;;;;;;;;;;13.80;99.90;;;;;;5077357;28;19954;-78
2023/11/07 11:14:34;;;;;;;;;;;13.80;99.90;;;;;;5063111;28;19919;-77
2023/11/07 11:17:13;;;;;;;;;;;13.80;99.90;;;;;;5042691;28;19905;-78
2023/11/07 11:19:50;;;;;;;;;;;13.80;99.90;;;;;;5043648;28;19905;-78
2023/11/07 11:22:43;;;;;;;;;;;13.80;99.90;;;;;;5059937;28;19959;-79
2023/11/07 11:25:26;;;;;;;;;;;13.90;99.90;;;;;;5081209;28;20010;-78
2023/11/07 11:27:53;;;;;;;;;;;13.60;99.90;;;;;;5063340;28;19920;-79
2023/11/07 11:30:25;;;;;;;;;;;13.50;99.90;;;;;;5059685;28;19976;-79
2023/11/07 11:33:05;;;;;;;;;;;13.30;99.90;;;;;;5060383;28;19912;-78
2023/11/07 11:35:31;;;;;;;;;;;13.20;99.90;;;;;;5043027;28;19904;-78
2023/11/07 11:38:12;;;;;;;;;;;13.30;99.90;;;;;;5044232;28;19959;-79
2023/11/07 11:40:52;;;;;;;;;;;13.30;99.90;;;;;;5060754;28;19909;-79
2023/11/07 11:43:20;;;;;;;;;;;13.40;99.90;;;;;;5042980;28;20403;-79
2023/11/07 11:45:47;;;;;;;;;;;13.50;99.90;;;;;;5062273;28;20344;-78
2023/11/07 11:48:13;;;;;;;;;;;13.60;99.90;;;;;;5060851;28;19985;-79
2023/11/07 11:50:39;;;;;;;;;;;13.80;99.90;;;;;;5043660;28;20385;-78
2023/11/07 11:53:05;;;;;;;;;;;14.00;99.90;;;;;;5077279;28;19908;-78
2023/11/07 11:55:50;;;;;;;;;;;14.40;99.90;;;;;;5080497;28;19939;-79
2023/11/07 11:58:16;;;;;;;;;;;14.40;99.90;;;;;;5081061;28;20003;-79
2023/11/07 12:00:44;;;;;;;;;;;14.40;99.90;;;;;;5080936;28;19912;-78
2023/11/07 12:03:15;;;;;;;;;;;14.40;99.90;;;;;;5061700;28;19915;-78
2023/11/07 12:05:42;;;;;;;;;;;14.30;99.90;;;;;;5063943;28;19912;-79
2023/11/07 12:08:38;;;;;;;;;;;14.30;99.90;;;;;;5063603;28;19904;-78
2023/11/07 12:11:07;;;;;;;;;;;14.20;99.90;;;;;;5062963;28;19904;-78
2023/11/07 12:13:34;;;;;;;;;;;14.20;99.90;;;;;;5063987;28;19905;-79
2023/11/07 12:16:13;;;;;;;;;;;14.10;99.90;;;;;;5064765;28;19955;-78
2023/11/07 12:18:40;;;;;;;;;;;14.10;99.90;;;;;;5063240;28;19908;-79
2023/11/07 12:21:05;;;;;;;;;;;14.00;99.90;;;;;;5079108;28;19904;-78
2023/11/07 12:23:32;;;;;;;;;;;14.10;99.90;;;;;;5064142;28;19999;-77
2023/11/07 12:25:58;;;;;;;;;;;14.10;99.90;;;;;;5081637;28;19908;-78
2023/11/07 12:28:24;;;;;;;;;;;14.10;99.90;;;;;;5090118;28;19947;-79
2023/11/07 12:30:53;;;;;;;;;;;14.20;99.90;;;;;;5082465;28;19904;-79
2023/11/07 12:33:19;;;;;;;;;;;14.10;99.90;;;;;;5062016;28;19908;-79
2023/11/07 12:35:45;;;;;;;;;;;14.20;99.90;;;;;;5079633;28;19904;-78
2023/11/07 12:38:11;;;;;;;;;;;14.10;99.90;;;;;;5050151;28;19927;-79
2023/11/07 12:40:39;;;;;;;;;;;14.10;99.90;;;;;;5062440;28;19911;-78
2023/11/07 12:43:11;;;;;;;;;;;14.00;99.90;;;;;;5044633;28;19912;-79
2023/11/07 12:45:42;;;;;;;;;;;13.90;99.90;;;;;;5062632;28;19912;-79
2023/11/07 12:48:14;;;;;;;;;;;13.80;99.90;;;;;;5062460;28;19911;-79
2023/11/07 12:50:46;;;;;;;;;;;13.70;99.90;;;;;;5044458;28;19912;-79
2023/11/07 12:53:21;;;;;;;;;;;13.70;99.90;;;;;;5066574;28;19916;-79
2023/11/07 12:55:51;;;;;;;;;;;13.70;99.90;;;;;;5047377;28;19911;-78
2023/11/07 12:58:27;;;;;;;;;;;13.80;99.90;;;;;;5047944;28;19971;-78
2023/11/07 13:00:53;;;;;;;;;;;13.50;99.90;;;;;;5071680;28;19939;-79
2023/11/07 13:03:19;;;;;;;;;;;14.00;99.90;;;;;;5066914;28;19916;-79
2023/11/07 13:05:54;;;;;;;;;;;14.00;99.90;;;;;;5066922;28;19923;-79
2023/11/07 13:08:28;;;;;;;;;;;14.00;99.90;;;;;;5052010;28;19909;-78
2023/11/07 13:11:16;;;;;;;;;;;14.00;99.90;;;;;;5063406;28;19962;-78
2023/11/07 13:13:49;;;;;;;;;;;14.00;99.90;;;;;;5045810;28;19983;-79
2023/11/07 13:16:14;;;;;;;;;;;14.10;99.90;;;;;;5077271;28;19912;-78
2023/11/07 13:19:07;;;;;;;;;;;14.10;99.90;;;;;;5040704;28;19928;-77
2023/11/07 13:21:37;;;;;;;;;;;14.20;99.90;;;;;;5064441;28;19968;-79
2023/11/07 13:24:10;;;;;;;;;;;14.30;99.90;;;;;;5082427;28;19913;-78
2023/11/07 13:26:36;;;;;;;;;;;14.20;99.90;;;;;;5062869;28;19923;-79
2023/11/07 13:29:04;;;;;;;;;;;14.20;99.90;;;;;;5076428;28;19917;-77
2023/11/07 13:31:29;;;;;;;;;;;14.10;99.90;;;;;;5064808;28;19911;-79
2023/11/07 13:33:55;;;;;;;;;;;14.00;99.90;;;;;;5067011;28;19905;-79
2023/11/07 13:36:21;;;;;;;;;;;13.90;99.90;;;;;;5066237;28;19944;-78
2023/11/07 13:38:47;;;;;;;;;;;13.90;99.90;;;;;;5084489;28;19908;-78
2023/11/07 13:41:15;;;;;;;;;;;13.90;99.90;;;;;;5084597;28;19930;-79
2023/11/07 13:43:41;;;;;;;;;;;13.80;99.90;;;;;;5065844;28;19920;-79
2023/11/07 13:46:07;;;;;;;;;;;13.80;99.90;;;;;;5083374;28;19909;-79
2023/11/07 13:48:33;;;;;;;;;;;13.90;99.90;;;;;;5066188;28;20304;-78
2023/11/07 13:50:59;;;;;;;;;;;13.90;99.90;;;;;;5065478;28;19904;-78
2023/11/07 13:53:25;;;;;;;;;;;13.90;99.90;;;;;;5066433;28;19924;-79
2023/11/07 13:55:51;;;;;;;;;;;13.90;99.90;;;;;;5066996;28;19976;-78
2023/11/07 13:58:20;;;;;;;;;;;13.80;99.90;;;;;;5065490;28;19930;-78
2023/11/07 14:00:46;;;;;;;;;;;13.70;99.90;;;;;;5066624;28;20280;-79
2023/11/07 14:03:15;;;;;;;;;;;13.70;99.90;;;;;;5083818;28;19915;-79
2023/11/07 14:05:41;;;;;;;;;;;13.60;99.90;;;;;;5060583;28;19908;-79
2023/11/07 14:08:08;;;;;;;;;;;13.60;99.90;;;;;;5084386;28;19904;-79
2023/11/07 14:10:35;;;;;;;;;;;13.40;99.90;;;;;;5066503;28;19911;-79
2023/11/07 14:13:01;;;;;;;;;;;13.40;99.90;;;;;;5047492;28;19976;-79
2023/11/07 14:15:32;;;;;;;;;;;13.30;99.90;;;;;;5046346;28;19947;-79
2023/11/07 14:18:00;;;;;;;;;;;13.30;99.90;;;;;;5046444;28;19909;-79
2023/11/07 14:20:26;;;;;;;;;;;13.20;99.90;;;;;;5045662;28;19963;-78
2023/11/07 14:22:54;;;;;;;;;;;13.20;99.90;;;;;;5045937;28;19936;-78
2023/11/07 14:25:20;;;;;;;;;;;13.20;99.90;;;;;;5040551;28;20361;-78
2023/11/07 14:27:46;;;;;;;;;;;13.10;99.90;;;;;;5065802;28;20011;-80